createdAt,value
2018-01-28T00:00:30.134Z,-2.45
2018-01-28T00:02:57.709Z,-2.45
2018-01-28T00:05:25.264Z,-2.55
2018-01-28T00:07:52.862Z,-2.57
2018-01-28T00:10:20.449Z,-2.60
2018-01-28T00:12:48.097Z,-2.62
2018-01-28T00:15:15.734Z,-2.79
2018-01-28T00:17:43.362Z,-2.83
2018-01-28T00:20:10.992Z,-2.86
2018-01-28T00:22:38.766Z,-2.86
2018-01-28T00:25:06.313Z,-2.84
2018-01-28T00:27:33.862Z,-2.79
2018-01-28T00:30:01.418Z,-2.81
2018-01-28T00:32:29.036Z,-2.87
2018-01-28T00:34:56.625Z,-2.84
2018-01-28T00:37:24.174Z,-2.91
2018-01-28T00:39:51.723Z,-2.89
2018-01-28T00:42:19.286Z,-2.88
2018-01-28T00:44:46.835Z,-2.92
2018-01-28T00:47:14.438Z,-2.89
2018-01-28T00:49:41.992Z,-2.84
2018-01-28T00:52:09.546Z,-2.97
2018-01-28T00:54:37.102Z,-3.00
2018-01-28T00:57:04.824Z,-3.02
2018-01-28T00:59:32.632Z,-3.01
2018-01-28T01:02:00.182Z,-3.01
2018-01-28T01:04:27.793Z,-2.97
2018-01-28T01:06:55.350Z,-2.96
2018-01-28T01:09:22.898Z,-2.93
2018-01-28T01:11:50.506Z,-2.96
2018-01-28T01:14:18.050Z,-2.97
2018-01-28T01:16:45.606Z,-2.89
2018-01-28T01:19:13.165Z,-2.90
2018-01-28T01:21:40.722Z,-2.96
2018-01-28T01:24:08.310Z,-2.96
2018-01-28T01:26:36.028Z,-2.98
2018-01-28T01:29:03.653Z,-3.01
2018-01-28T01:31:31.243Z,-3.04
2018-01-28T01:33:58.786Z,-3.16
2018-01-28T01:36:26.502Z,-3.19
2018-01-28T01:38:54.049Z,-3.19
2018-01-28T01:41:21.591Z,-3.19
2018-01-28T01:43:49.145Z,-3.25
2018-01-28T01:46:17.671Z,-3.28
2018-01-28T01:48:45.401Z,-3.38
2018-01-28T01:51:13.213Z,-3.43
2018-01-28T01:53:41.029Z,-3.45
2018-01-28T01:56:08.583Z,-3.46
2018-01-28T01:58:36.130Z,-3.39
2018-01-28T02:01:03.777Z,-3.47
2018-01-28T02:03:31.407Z,-3.55
2018-01-28T02:05:58.958Z,-3.51
2018-01-28T02:08:26.524Z,-3.54
2018-01-28T02:10:54.071Z,-3.57
2018-01-28T02:13:21.726Z,-3.57
2018-01-28T02:15:49.390Z,-3.52
2018-01-28T02:18:17.004Z,-3.51
2018-01-28T02:20:44.580Z,-3.56
2018-01-28T02:23:12.134Z,-3.60
2018-01-28T02:25:39.734Z,-3.59
2018-01-28T02:28:07.286Z,-3.59
2018-01-28T02:30:34.830Z,-3.55
2018-01-28T02:33:02.386Z,-3.61
2018-01-28T02:35:30.096Z,-3.59
2018-01-28T02:37:57.686Z,-3.53
2018-01-28T02:40:25.466Z,-3.54
2018-01-28T02:42:53.017Z,-3.58
2018-01-28T02:45:20.565Z,-3.65
2018-01-28T02:47:48.109Z,-3.63
2018-01-28T02:50:15.936Z,-3.60
2018-01-28T02:52:43.484Z,-3.57
2018-01-28T02:55:11.045Z,-3.55
2018-01-28T02:57:38.605Z,-3.56
2018-01-28T03:00:06.146Z,-3.69
2018-01-28T03:02:33.733Z,-3.70
2018-01-28T03:05:01.442Z,-3.71
2018-01-28T03:07:29.160Z,-3.75
2018-01-28T03:09:56.879Z,-3.77
2018-01-28T03:12:24.495Z,-3.85
2018-01-28T03:14:52.222Z,-3.90
2018-01-28T03:17:19.785Z,-3.91
2018-01-28T03:19:47.329Z,-3.96
2018-01-28T03:22:14.874Z,-4.05
2018-01-28T03:24:42.430Z,-4.04
2018-01-28T03:27:09.988Z,-4.12
2018-01-28T03:29:37.553Z,-4.15
2018-01-28T03:32:05.178Z,-4.09
2018-01-28T03:34:32.753Z,-4.02
2018-01-28T03:37:00.346Z,-3.97
2018-01-28T03:39:28.062Z,-3.95
2018-01-28T03:41:55.809Z,-3.94
2018-01-28T03:44:23.402Z,-4.03
2018-01-28T03:46:50.942Z,-4.09
2018-01-28T03:49:18.521Z,-4.12
2018-01-28T03:51:46.074Z,-4.09
2018-01-28T03:54:13.617Z,-4.19
2018-01-28T03:56:41.229Z,-4.23
2018-01-28T03:59:08.769Z,-4.21
2018-01-28T04:01:36.553Z,-4.22
2018-01-28T04:04:04.126Z,-4.21
2018-01-28T04:06:31.887Z,-4.17
2018-01-28T04:08:59.610Z,-4.16
2018-01-28T04:11:27.151Z,-4.18
2018-01-28T04:13:54.847Z,-4.13
2018-01-28T04:16:22.453Z,-4.15
2018-01-28T04:18:49.994Z,-4.15
2018-01-28T04:21:17.585Z,-4.16
2018-01-28T04:23:45.126Z,-4.21
2018-01-28T04:26:12.834Z,-4.18
2018-01-28T04:28:40.382Z,-4.15
2018-01-28T04:31:07.926Z,-4.15
2018-01-28T04:33:35.582Z,-4.15
2018-01-28T04:36:03.133Z,-4.20
2018-01-28T04:38:30.674Z,-4.18
2018-01-28T04:40:58.342Z,-4.21
2018-01-28T04:43:25.894Z,-4.22
2018-01-28T04:45:53.673Z,-4.26
2018-01-28T04:48:21.226Z,-4.30
2018-01-28T04:50:48.778Z,-4.32
2018-01-28T04:53:16.430Z,-4.37
2018-01-28T04:55:43.986Z,-4.38
2018-01-28T04:58:11.722Z,-4.38
2018-01-28T05:00:39.337Z,-4.42
2018-01-28T05:03:06.882Z,-4.35
2018-01-28T05:05:34.462Z,-4.33
2018-01-28T05:08:02.078Z,-4.31
2018-01-28T05:10:29.754Z,-4.34
2018-01-28T05:12:57.410Z,-4.34
2018-01-28T05:15:25.090Z,-4.39
2018-01-28T05:17:52.633Z,-4.52
2018-01-28T05:20:20.422Z,-4.59
2018-01-28T05:22:47.994Z,-4.57
2018-01-28T05:25:15.582Z,-4.65
2018-01-28T05:27:43.190Z,-4.62
2018-01-28T05:30:10.732Z,-4.59
2018-01-28T05:32:38.411Z,-4.48
2018-01-28T05:35:06.034Z,-4.45
2018-01-28T05:37:33.625Z,-4.48
2018-01-28T05:40:01.265Z,-4.55
2018-01-28T05:42:28.878Z,-4.48
2018-01-28T05:44:56.497Z,-4.51
2018-01-28T05:47:24.128Z,-4.51
2018-01-28T05:49:51.722Z,-4.57
2018-01-28T05:52:19.268Z,-4.54
2018-01-28T05:54:46.817Z,-4.52
2018-01-28T05:57:14.466Z,-4.50
2018-01-28T05:59:42.114Z,-4.50
2018-01-28T06:02:09.730Z,-4.57
2018-01-28T06:04:37.346Z,-4.55
2018-01-28T06:07:04.890Z,-4.57
2018-01-28T06:09:32.678Z,-4.49
2018-01-28T06:12:00.396Z,-4.38
2018-01-28T06:14:28.114Z,-4.23
2018-01-28T06:16:55.683Z,-4.16
2018-01-28T06:19:23.354Z,-4.06
2018-01-28T06:21:51.168Z,-4.03
2018-01-28T06:24:18.744Z,-3.99
2018-01-28T06:26:46.510Z,-3.92
2018-01-28T06:29:14.088Z,-3.90
2018-01-28T06:31:41.634Z,-3.80
2018-01-28T06:34:09.263Z,-3.66
2018-01-28T06:36:36.986Z,-3.59
2018-01-28T06:39:04.610Z,-3.41
2018-01-28T06:41:32.186Z,-3.21
2018-01-28T06:43:59.764Z,-2.90
2018-01-28T06:46:27.547Z,-2.62
2018-01-28T06:48:55.271Z,-2.47
2018-01-28T06:51:23.086Z,-2.37
2018-01-28T06:53:50.665Z,-2.15
2018-01-28T06:56:18.421Z,-2.08
2018-01-28T06:58:46.138Z,-1.96
2018-01-28T07:01:13.809Z,-1.78
2018-01-28T07:03:41.410Z,-1.62
2018-01-28T07:06:08.965Z,-1.58
2018-01-28T07:08:36.667Z,-1.44
2018-01-28T07:11:04.224Z,-1.25
2018-01-28T07:13:31.863Z,-1.12
2018-01-28T07:15:59.453Z,-0.83
2018-01-28T07:18:27.006Z,-0.55
2018-01-28T07:20:54.575Z,-0.37
2018-01-28T07:23:22.126Z,-0.18
2018-01-28T07:25:49.734Z,0.16
2018-01-28T07:28:17.458Z,0.69
2018-01-28T07:30:45.000Z,1.16
2018-01-28T07:33:12.542Z,1.46
2018-01-28T07:35:40.310Z,1.39
2018-01-28T07:38:07.855Z,1.15
2018-01-28T07:40:35.740Z,1.02
2018-01-28T07:43:03.273Z,0.97
2018-01-28T07:45:30.946Z,1.21
2018-01-28T07:47:58.490Z,2.09
2018-01-28T07:50:26.042Z,3.50
2018-01-28T07:52:53.666Z,4.31
2018-01-28T07:55:21.236Z,5.04
2018-01-28T07:57:48.810Z,5.70
2018-01-28T08:00:16.383Z,6.22
2018-01-28T08:02:44.013Z,7.08
2018-01-28T08:05:11.594Z,7.58
2018-01-28T08:07:39.194Z,8.25
2018-01-28T08:13:13.537Z,9.64
2018-01-28T08:15:41.234Z,10.44
2018-01-28T08:18:08.809Z,10.51
2018-01-28T08:20:36.352Z,10.38
2018-01-28T08:23:04.146Z,10.98
2018-01-28T08:25:31.738Z,11.27
2018-01-28T08:28:03.282Z,11.32
2018-01-28T08:30:30.842Z,11.69
2018-01-28T08:32:58.414Z,11.77
2018-01-28T08:35:26.030Z,11.97
2018-01-28T08:37:53.771Z,12.26
2018-01-28T08:40:21.394Z,12.31
2018-01-28T08:42:48.987Z,12.11
2018-01-28T08:45:16.529Z,11.93
2018-01-28T08:47:44.152Z,11.78
2018-01-28T08:50:11.731Z,11.90
2018-01-28T08:52:39.359Z,12.21
2018-01-28T08:55:07.227Z,12.25
2018-01-28T08:57:34.785Z,12.46
2018-01-28T09:00:02.338Z,11.78
2018-01-28T09:02:29.874Z,11.86
2018-01-28T09:04:57.462Z,12.08
2018-01-28T09:07:25.118Z,11.91
2018-01-28T09:09:52.708Z,12.18
2018-01-28T09:12:20.269Z,12.62
2018-01-28T09:14:47.810Z,12.89
2018-01-28T09:17:15.350Z,12.83
2018-01-28T09:19:42.898Z,12.82
2018-01-28T09:22:10.622Z,12.79
2018-01-28T09:24:38.339Z,12.62
2018-01-28T09:27:05.914Z,12.18
2018-01-28T09:29:33.578Z,12.24
2018-01-28T09:32:01.119Z,12.61
2018-01-28T09:34:28.911Z,12.99
2018-01-28T09:36:56.535Z,13.27
2018-01-28T09:39:24.081Z,13.87
2018-01-28T09:41:51.638Z,13.73
2018-01-28T09:44:19.177Z,13.71
2018-01-28T09:46:46.796Z,13.03
2018-01-28T09:49:14.394Z,13.45
2018-01-28T09:51:42.135Z,13.52
2018-01-28T09:54:09.827Z,13.66
2018-01-28T09:56:37.382Z,13.71
2018-01-28T09:59:05.218Z,13.84
2018-01-28T10:01:32.802Z,14.17
2018-01-28T10:04:00.524Z,14.02
2018-01-28T10:06:28.075Z,14.18
2018-01-28T10:08:55.610Z,14.26
2018-01-28T10:11:23.192Z,13.85
2018-01-28T10:13:50.995Z,13.80
2018-01-28T10:16:18.623Z,13.64
2018-01-28T10:18:46.169Z,13.41
2018-01-28T10:21:14.854Z,13.39
2018-01-28T10:23:42.438Z,13.59
2018-01-28T10:26:09.980Z,14.22
2018-01-28T10:28:37.518Z,14.25
2018-01-28T10:31:05.066Z,14.35
2018-01-28T10:33:32.610Z,14.55
2018-01-28T10:36:00.362Z,14.35
2018-01-28T10:38:27.907Z,14.19
2018-01-28T10:43:31.751Z,13.87
2018-01-28T10:45:59.293Z,13.78
2018-01-28T10:48:26.874Z,13.94
2018-01-28T10:50:54.595Z,14.11
2018-01-28T10:53:22.193Z,13.82
2018-01-28T10:55:49.832Z,13.62
2018-01-28T10:58:17.434Z,13.63
2018-01-28T11:00:45.022Z,13.71
2018-01-28T11:03:12.882Z,13.73
2018-01-28T11:05:40.511Z,13.72
2018-01-28T11:08:08.058Z,13.18
2018-01-28T11:10:35.602Z,13.19
2018-01-28T11:13:03.190Z,13.71
2018-01-28T11:15:30.875Z,14.43
2018-01-28T11:17:58.409Z,14.54
2018-01-28T11:20:25.978Z,15.03
2018-01-28T11:22:53.563Z,15.45
2018-01-28T11:25:21.346Z,15.41
2018-01-28T11:27:48.897Z,15.61
2018-01-28T11:30:16.883Z,15.80
2018-01-28T11:32:44.430Z,15.99
2018-01-28T11:35:12.467Z,16.05
2018-01-28T11:37:40.312Z,16.35
2018-01-28T11:40:08.139Z,16.63
2018-01-28T11:42:35.694Z,17.00
2018-01-28T11:45:03.274Z,16.25
2018-01-28T11:47:31.177Z,16.56
2018-01-28T11:49:59.004Z,16.61
2018-01-28T11:52:26.651Z,16.68
2018-01-28T11:54:54.365Z,17.22
2018-01-28T11:57:22.766Z,17.16
2018-01-28T11:59:50.490Z,17.28
2018-01-28T12:02:18.069Z,17.03
2018-01-28T12:04:45.602Z,16.92
2018-01-28T12:07:13.138Z,17.10
2018-01-28T12:09:40.694Z,17.06
2018-01-28T12:12:08.242Z,17.22
2018-01-28T12:14:35.830Z,17.31
2018-01-28T12:17:03.362Z,17.22
2018-01-28T12:19:30.898Z,17.67
2018-01-28T12:21:58.442Z,18.17
2018-01-28T12:24:25.974Z,18.50
2018-01-28T12:26:53.566Z,19.02
2018-01-28T12:29:21.223Z,18.96
2018-01-28T12:31:48.794Z,18.82
2018-01-28T12:34:16.378Z,18.82
2018-01-28T12:36:43.922Z,18.75
2018-01-28T12:39:11.529Z,19.09
2018-01-28T12:41:39.066Z,18.71
2018-01-28T12:44:06.602Z,18.83
2018-01-28T12:46:34.146Z,18.88
2018-01-28T12:49:01.681Z,18.67
2018-01-28T12:51:29.475Z,18.73
2018-01-28T12:53:57.070Z,19.03
2018-01-28T12:56:24.609Z,18.90
2018-01-28T12:58:52.333Z,19.03
2018-01-28T13:01:19.873Z,18.93
2018-01-28T13:03:47.466Z,19.00
2018-01-28T13:06:15.012Z,18.85
2018-01-28T13:08:42.555Z,18.85
2018-01-28T13:11:10.110Z,18.98
2018-01-28T13:13:37.650Z,19.22
2018-01-28T13:16:05.237Z,19.62
2018-01-28T13:18:32.775Z,19.75
2018-01-28T13:21:00.318Z,19.47
2018-01-28T13:23:27.866Z,19.32
2018-01-28T13:25:55.408Z,19.35
2018-01-28T13:28:23.002Z,19.36
2018-01-28T13:30:50.713Z,19.57
2018-01-28T13:33:18.258Z,19.26
2018-01-28T13:35:45.858Z,18.91
2018-01-28T13:38:13.408Z,18.13
2018-01-28T13:40:41.135Z,17.88
2018-01-28T13:43:08.674Z,18.34
2018-01-28T13:45:36.374Z,18.51
2018-01-28T13:48:04.082Z,17.94
2018-01-28T13:50:31.702Z,18.33
2018-01-28T13:52:59.426Z,18.36
2018-01-28T13:55:27.034Z,18.62
2018-01-28T13:57:54.565Z,18.59
2018-01-28T14:00:22.121Z,18.59
2018-01-28T14:02:49.657Z,18.81
2018-01-28T14:05:17.353Z,18.79
2018-01-28T14:07:44.894Z,18.65
2018-01-28T14:10:12.437Z,18.55
2018-01-28T14:12:40.166Z,18.44
2018-01-28T14:15:07.839Z,18.16
2018-01-28T14:17:35.430Z,17.25
2018-01-28T14:20:03.100Z,17.42
2018-01-28T14:22:31.692Z,17.13
2018-01-28T14:24:59.251Z,17.19
2018-01-28T14:27:27.781Z,17.47
2018-01-28T14:29:55.353Z,17.11
2018-01-28T14:32:24.019Z,16.85
2018-01-28T14:34:52.204Z,16.76
2018-01-28T14:37:20.851Z,16.75
2018-01-28T14:39:48.727Z,16.50
2018-01-28T14:42:16.281Z,16.05
2018-01-28T14:44:43.850Z,15.94
2018-01-28T14:47:11.507Z,15.68
2018-01-28T14:49:39.042Z,15.11
2018-01-28T14:52:06.586Z,14.51
2018-01-28T14:54:34.174Z,14.28
2018-01-28T14:57:01.787Z,13.77
2018-01-28T14:59:29.407Z,13.21
2018-01-28T15:01:56.966Z,12.64
2018-01-28T15:04:24.526Z,11.66
2018-01-28T15:06:52.065Z,10.97
2018-01-28T15:09:19.667Z,10.40
2018-01-28T15:11:47.214Z,9.78
2018-01-28T15:14:14.987Z,9.30
2018-01-28T15:16:42.537Z,8.89
2018-01-28T15:19:10.148Z,8.59
2018-01-28T15:21:37.938Z,8.28
2018-01-28T15:24:05.478Z,8.01
2018-01-28T15:26:33.017Z,7.56
2018-01-28T15:29:00.567Z,7.27
2018-01-28T15:31:28.128Z,6.96
2018-01-28T15:33:55.874Z,6.72
2018-01-28T15:36:23.418Z,6.55
2018-01-28T15:38:50.965Z,6.44
2018-01-28T15:41:18.518Z,6.31
2018-01-28T15:43:46.135Z,6.19
2018-01-28T15:46:13.749Z,5.98
2018-01-28T15:48:41.374Z,5.83
2018-01-28T15:51:08.989Z,5.77
2018-01-28T15:53:36.619Z,5.61
2018-01-28T15:56:04.206Z,5.48
2018-01-28T15:58:31.810Z,5.39
2018-01-28T16:00:59.378Z,5.41
2018-01-28T16:03:26.930Z,5.33
2018-01-28T16:05:54.518Z,5.15
2018-01-28T16:08:22.313Z,5.04
2018-01-28T16:10:50.131Z,4.97
2018-01-28T16:13:17.850Z,5.00
2018-01-28T16:15:45.386Z,4.98
2018-01-28T16:18:12.926Z,4.88
2018-01-28T16:20:40.608Z,4.77
2018-01-28T16:23:08.197Z,4.69
2018-01-28T16:25:35.777Z,4.64
2018-01-28T16:28:03.327Z,4.59
2018-01-28T16:30:30.874Z,4.67
2018-01-28T16:32:58.418Z,4.62
2018-01-28T16:35:26.208Z,4.60
2018-01-28T16:37:53.930Z,4.54
2018-01-28T16:40:21.749Z,4.36
2018-01-28T16:42:49.504Z,4.32
2018-01-28T16:45:17.085Z,4.29
2018-01-28T16:47:44.701Z,4.27
2018-01-28T16:50:12.269Z,4.22
2018-01-28T16:52:39.825Z,4.14
2018-01-28T16:55:07.413Z,4.10
2018-01-28T16:57:35.070Z,3.99
2018-01-28T17:00:02.888Z,4.02
2018-01-28T17:02:30.616Z,3.99
2018-01-28T17:04:58.324Z,4.02
2018-01-28T17:07:25.985Z,3.82
2018-01-28T17:09:53.551Z,3.80
2018-01-28T17:12:21.379Z,3.79
2018-01-28T17:14:49.100Z,3.70
2018-01-28T17:17:16.916Z,3.65
2018-01-28T17:19:44.528Z,3.60
2018-01-28T17:22:12.176Z,3.55
2018-01-28T17:24:39.802Z,3.53
2018-01-28T17:27:07.568Z,3.47
2018-01-28T17:29:35.134Z,3.48
2018-01-28T17:32:02.815Z,3.41
2018-01-28T17:34:30.389Z,3.44
2018-01-28T17:36:57.999Z,3.41
2018-01-28T17:39:25.657Z,3.36
2018-01-28T17:41:53.396Z,3.19
2018-01-28T17:44:21.213Z,3.15
2018-01-28T17:46:48.823Z,3.21
2018-01-28T17:49:16.440Z,3.28
2018-01-28T17:51:44.059Z,3.35
2018-01-28T17:54:11.617Z,3.37
2018-01-28T17:56:39.175Z,3.42
2018-01-28T17:59:06.732Z,3.46
2018-01-28T18:01:34.324Z,3.46
2018-01-28T18:04:01.954Z,3.34
2018-01-28T18:06:29.534Z,3.12
2018-01-28T18:08:57.090Z,3.14
2018-01-28T18:11:24.818Z,3.06
2018-01-28T18:13:52.416Z,3.03
2018-01-28T18:16:19.978Z,3.16
2018-01-28T18:18:47.560Z,3.24
2018-01-28T18:21:15.380Z,3.29
2018-01-28T18:23:42.910Z,3.34
2018-01-28T18:26:10.623Z,3.30
2018-01-28T18:28:38.232Z,3.26
2018-01-28T18:31:05.806Z,3.27
2018-01-28T18:33:33.354Z,3.30
2018-01-28T18:36:00.959Z,3.25
2018-01-28T18:38:28.546Z,3.22
2018-01-28T18:40:56.327Z,3.11
2018-01-28T18:43:24.110Z,2.95
2018-01-28T18:45:51.831Z,2.73
2018-01-28T18:48:19.371Z,2.60
2018-01-28T18:50:47.018Z,2.45
2018-01-28T18:53:14.813Z,2.45
2018-01-28T18:55:42.442Z,2.32
2018-01-28T18:58:10.055Z,2.30
2018-01-28T19:00:37.767Z,2.28
2018-01-28T19:03:05.362Z,2.29
2018-01-28T19:05:32.910Z,2.32
2018-01-28T19:08:00.510Z,2.33
2018-01-28T19:10:28.130Z,2.31
2018-01-28T19:12:55.778Z,2.29
2018-01-28T19:15:23.373Z,2.28
2018-01-28T19:17:51.108Z,2.32
2018-01-28T19:20:18.883Z,2.23
2018-01-28T19:22:46.599Z,2.21
2018-01-28T19:25:14.150Z,2.16
2018-01-28T19:27:41.770Z,2.14
2018-01-28T19:30:09.498Z,2.15
2018-01-28T19:32:37.109Z,2.18
2018-01-28T19:35:04.694Z,2.25
2018-01-28T19:37:32.436Z,2.27
2018-01-28T19:39:59.973Z,2.29
2018-01-28T19:42:27.529Z,2.31
2018-01-28T19:44:55.188Z,2.33
2018-01-28T19:47:22.915Z,2.38
2018-01-28T19:49:50.498Z,2.37
2018-01-28T19:52:18.144Z,2.36
2018-01-28T19:54:45.713Z,2.40
2018-01-28T19:57:13.249Z,2.48
2018-01-28T19:59:40.798Z,2.51
2018-01-28T20:02:08.372Z,2.46
2018-01-28T20:04:35.922Z,2.38
2018-01-28T20:07:03.474Z,2.25
2018-01-28T20:09:31.056Z,2.02
2018-01-28T20:11:58.785Z,2.02
2018-01-28T20:14:26.379Z,1.87
2018-01-28T20:16:54.119Z,1.86
2018-01-28T20:19:21.668Z,1.77
2018-01-28T20:21:49.229Z,1.84
2018-01-28T20:24:16.786Z,1.84
2018-01-28T20:26:44.384Z,1.92
2018-01-28T20:29:11.958Z,1.94
2018-01-28T20:31:39.661Z,2.02
2018-01-28T20:34:07.445Z,1.99
2018-01-28T20:36:34.998Z,2.05
2018-01-28T20:39:02.620Z,2.08
2018-01-28T20:41:30.167Z,2.01
2018-01-28T20:43:57.808Z,1.97
2018-01-28T20:46:25.375Z,1.88
2018-01-28T20:48:53.159Z,1.82
2018-01-28T20:51:20.762Z,1.67
2018-01-28T20:53:48.302Z,1.64
2018-01-28T20:56:15.846Z,1.59
2018-01-28T20:58:43.530Z,1.56
2018-01-28T21:01:11.253Z,1.62
2018-01-28T21:03:38.964Z,1.73
2018-01-28T21:06:06.509Z,1.79
2018-01-28T21:08:34.055Z,1.74
2018-01-28T21:11:01.812Z,1.76
2018-01-28T21:13:29.529Z,1.76
2018-01-28T21:15:57.118Z,1.81
2018-01-28T21:18:24.771Z,1.73
2018-01-28T21:20:52.318Z,1.71
2018-01-28T21:23:19.875Z,1.68
2018-01-28T21:25:47.526Z,1.65
2018-01-28T21:28:15.110Z,1.60
2018-01-28T21:30:42.855Z,1.54
2018-01-28T21:33:10.678Z,1.53
2018-01-28T21:35:38.237Z,1.43
2018-01-28T21:38:05.963Z,1.43
2018-01-28T21:40:33.541Z,1.50
2018-01-28T21:43:01.089Z,1.52
2018-01-28T21:45:28.632Z,1.64
2018-01-28T21:47:56.276Z,1.63
2018-01-28T21:50:23.816Z,1.66
2018-01-28T21:52:51.617Z,1.70
2018-01-28T21:55:19.334Z,1.75
2018-01-28T21:57:46.899Z,1.81
2018-01-28T22:00:14.494Z,1.80
2018-01-28T22:02:42.239Z,1.85
2018-01-28T22:05:09.822Z,1.82
2018-01-28T22:07:37.358Z,1.83
2018-01-28T22:10:04.910Z,1.78
2018-01-28T22:12:32.469Z,1.79
2018-01-28T22:15:00.276Z,1.79
2018-01-28T22:17:27.889Z,1.83
2018-01-28T22:19:55.612Z,1.68
2018-01-28T22:22:23.161Z,1.53
2018-01-28T22:24:50.713Z,1.45
2018-01-28T22:27:18.258Z,1.41
2018-01-28T22:29:45.882Z,1.37
2018-01-28T22:32:13.518Z,1.40
2018-01-28T22:34:41.228Z,1.36
2018-01-28T22:37:08.782Z,1.33
2018-01-28T22:39:36.518Z,1.22
2018-01-28T22:42:04.232Z,1.21
2018-01-28T22:44:31.898Z,1.15
2018-01-28T22:46:59.466Z,1.14
2018-01-28T22:49:27.016Z,1.14
2018-01-28T22:51:54.566Z,1.05
2018-01-28T22:54:22.132Z,1.06
2018-01-28T22:56:49.718Z,0.98
2018-01-28T22:59:17.497Z,0.97
2018-01-28T23:01:45.071Z,0.97
2018-01-28T23:04:12.801Z,0.88
2018-01-28T23:06:40.335Z,0.83
2018-01-28T23:09:08.170Z,0.75
2018-01-28T23:11:35.708Z,0.70
2018-01-28T23:14:03.407Z,0.68
2018-01-28T23:16:30.962Z,0.65
2018-01-28T23:18:58.539Z,0.61
2018-01-28T23:21:26.131Z,0.60
2018-01-28T23:23:53.745Z,0.58
2018-01-28T23:26:21.289Z,0.63
2018-01-28T23:28:48.868Z,0.71
2018-01-28T23:31:16.531Z,0.67
2018-01-28T23:33:44.123Z,0.71
2018-01-28T23:36:11.670Z,0.77
2018-01-28T23:38:39.290Z,0.84
2018-01-28T23:41:06.994Z,0.90
2018-01-28T23:43:34.609Z,0.91
2018-01-28T23:46:02.198Z,0.88
2018-01-28T23:48:29.734Z,0.85
2018-01-28T23:50:57.590Z,0.77
2018-01-28T23:53:25.133Z,0.80
2018-01-28T23:55:52.810Z,0.82
2018-01-28T23:58:20.396Z,0.94
